createdAt,value
2023-12-14T05:07:25.206Z,17.00
2023-12-14T05:10:27.965Z,14.65
2023-12-14T05:13:31.091Z,15.35
2023-12-14T05:16:33.591Z,14.43
2023-12-14T05:19:37.430Z,15.35
2023-12-14T05:22:40.519Z,14.93
2023-12-14T05:25:42.941Z,13.02
2023-12-14T05:28:46.141Z,15.40
2023-12-14T05:31:48.570Z,15.02
2023-12-14T05:34:51.543Z,13.93
2023-12-14T05:37:54.063Z,13.68
2023-12-14T05:40:56.539Z,15.77
2023-12-14T05:43:59.958Z,13.73
2023-12-14T05:47:02.481Z,14.77
2023-12-14T05:50:05.730Z,17.62
2023-12-14T05:53:08.211Z,16.73
2023-12-14T05:56:10.531Z,16.62
2023-12-14T05:59:13.120Z,15.43
2023-12-14T06:02:15.508Z,14.23
2023-12-14T06:05:18.486Z,16.80
2023-12-14T06:08:20.811Z,14.48
2023-12-14T06:11:24.590Z,15.93
2023-12-14T06:14:27.853Z,15.07
2023-12-14T06:17:31.404Z,13.90
2023-12-14T06:20:33.971Z,15.95
2023-12-14T06:23:37.431Z,15.00
2023-12-14T06:26:46.264Z,15.82
2023-12-14T06:29:48.927Z,15.20
2023-12-14T06:32:51.126Z,16.60
2023-12-14T06:35:53.562Z,16.10
2023-12-14T06:38:56.522Z,15.98
2023-12-14T06:42:01.087Z,15.60
2023-12-14T06:45:04.589Z,18.20
2023-12-14T06:48:07.180Z,15.23
2023-12-14T06:51:09.622Z,16.23
2023-12-14T06:54:12.301Z,17.25
2023-12-14T06:57:14.668Z,18.08
2023-12-14T07:00:17.622Z,15.55
2023-12-14T07:03:20.160Z,19.83
2023-12-14T07:06:23.641Z,18.33
2023-12-14T07:09:26.578Z,21.42
2023-12-14T07:12:31.302Z,20.45
2023-12-14T07:15:34.008Z,19.65
2023-12-14T07:18:38.657Z,20.15
2023-12-14T07:21:40.932Z,20.45
2023-12-14T07:24:52.180Z,21.08
2023-12-14T07:27:55.325Z,18.85
2023-12-14T07:30:58.289Z,21.90
2023-12-14T07:34:00.595Z,21.83
2023-12-14T07:37:03.073Z,22.80
2023-12-14T07:40:05.945Z,25.48
2023-12-14T07:43:11.067Z,21.05
2023-12-14T07:46:13.266Z,24.77
2023-12-14T07:49:16.158Z,22.85
2023-12-14T07:52:18.658Z,22.13
2023-12-14T07:55:21.897Z,24.48
2023-12-14T07:58:24.215Z,25.55
2023-12-14T08:01:26.884Z,26.48
2023-12-14T08:04:29.358Z,21.17
2023-12-14T08:07:32.757Z,23.95
2023-12-14T08:10:35.471Z,24.15
2023-12-14T08:13:38.973Z,21.83
2023-12-14T08:16:44.652Z,20.33
2023-12-14T08:19:47.052Z,20.45
2023-12-14T08:22:49.874Z,25.98
2023-12-14T08:25:52.161Z,21.60
2023-12-14T08:28:54.687Z,22.37
2023-12-14T08:32:00.481Z,22.33
2023-12-14T08:35:03.738Z,23.42
2023-12-14T08:38:06.141Z,23.40
2023-12-14T08:41:09.012Z,19.83
2023-12-14T08:44:11.564Z,23.92
2023-12-14T08:47:14.081Z,21.77
2023-12-14T08:50:16.918Z,19.65
2023-12-14T08:53:19.415Z,20.73
2023-12-14T08:56:22.163Z,17.55
2023-12-14T08:59:24.802Z,20.95
2023-12-14T09:02:29.103Z,19.92
2023-12-14T09:05:31.873Z,18.90
2023-12-14T09:08:34.255Z,20.90
2023-12-14T09:11:37.514Z,22.10
2023-12-14T09:14:39.707Z,20.70
2023-12-14T09:17:43.567Z,20.70
2023-12-14T09:20:46.106Z,17.75
2023-12-14T09:23:48.804Z,21.25
2023-12-14T09:26:50.940Z,14.50
2023-12-14T09:29:53.349Z,18.62
2023-12-14T09:32:55.778Z,17.92
2023-12-14T09:35:58.291Z,18.70
2023-12-14T09:39:00.575Z,19.58
2023-12-14T09:42:08.313Z,16.75
2023-12-14T09:45:10.725Z,15.35
2023-12-14T09:48:14.280Z,17.12
2023-12-14T09:51:17.305Z,17.62
2023-12-14T09:54:19.697Z,19.08
2023-12-14T09:57:26.713Z,16.98
2023-12-14T10:00:37.332Z,16.80
2023-12-14T10:03:39.907Z,19.10
2023-12-14T10:06:44.116Z,19.08
2023-12-14T10:09:46.922Z,18.27
2023-12-14T10:12:56.693Z,19.75
2023-12-14T10:16:00.125Z,17.37
2023-12-14T10:19:02.889Z,16.67
2023-12-14T10:22:09.564Z,14.10
2023-12-14T10:25:12.168Z,14.57
2023-12-14T10:28:16.213Z,14.77
2023-12-14T10:31:23.768Z,15.20
2023-12-14T10:34:26.538Z,16.75
2023-12-14T10:37:30.739Z,17.58
2023-12-14T10:40:35.416Z,17.77
2023-12-14T10:43:48.438Z,17.15
2023-12-14T10:46:57.251Z,17.90
2023-12-14T10:50:02.851Z,16.52
2023-12-14T10:53:06.641Z,17.37
2023-12-14T10:56:12.004Z,17.58
2023-12-14T10:59:19.331Z,16.37
2023-12-14T11:02:21.469Z,18.05
2023-12-14T11:05:31.620Z,16.20
2023-12-14T11:08:35.788Z,16.83
2023-12-14T11:12:10.137Z,18.80
2023-12-14T11:15:12.331Z,13.43
2023-12-14T11:18:14.824Z,12.43
2023-12-14T11:21:23.570Z,17.48
2023-12-14T11:24:27.072Z,13.93
2023-12-14T11:27:30.727Z,13.62
2023-12-14T11:30:44.124Z,13.80
2023-12-14T11:33:58.729Z,12.80
2023-12-14T11:37:01.679Z,14.73
2023-12-14T11:40:06.309Z,14.45
2023-12-14T11:43:09.601Z,14.55
2023-12-14T11:46:13.023Z,13.52
2023-12-14T11:49:16.764Z,15.05
2023-12-14T11:52:19.478Z,15.98
2023-12-14T11:55:22.914Z,15.15
2023-12-14T11:58:25.864Z,15.60
2023-12-14T12:01:29.531Z,15.70
2023-12-14T12:04:32.219Z,16.20
2023-12-14T12:07:34.856Z,15.40
2023-12-14T12:10:38.831Z,15.88
2023-12-14T12:13:41.310Z,14.95
2023-12-14T12:16:43.863Z,16.23
2023-12-14T12:19:46.404Z,14.82
2023-12-14T12:22:48.931Z,15.38
2023-12-14T12:25:51.159Z,15.15
2023-12-14T12:28:53.762Z,16.85
2023-12-14T12:31:56.037Z,15.00
2023-12-14T12:34:58.601Z,15.27
2023-12-14T12:38:00.972Z,15.98
2023-12-14T12:41:03.655Z,13.98
2023-12-14T12:44:07.178Z,15.93
2023-12-14T12:47:11.551Z,15.63
2023-12-14T12:50:14.799Z,16.33
2023-12-14T12:53:17.586Z,19.00
2023-12-14T12:56:20.593Z,13.85
2023-12-14T12:59:23.457Z,14.95
2023-12-14T13:02:25.681Z,16.62
2023-12-14T13:05:28.453Z,15.70
2023-12-14T13:08:30.666Z,14.35
2023-12-14T13:11:33.703Z,17.25
2023-12-14T13:14:35.978Z,18.45
2023-12-14T13:17:39.156Z,15.23
2023-12-14T13:20:41.571Z,14.87
2023-12-14T13:23:45.110Z,13.70
2023-12-14T13:26:47.983Z,15.52
2023-12-14T13:29:50.483Z,18.25
2023-12-14T13:32:54.839Z,16.05
2023-12-14T13:35:57.442Z,15.18
2023-12-14T13:39:00.328Z,14.45
2023-12-14T13:42:03.150Z,14.13
2023-12-14T13:45:06.479Z,12.43
2023-12-14T13:48:09.959Z,15.90
2023-12-14T13:51:12.191Z,15.27
2023-12-14T13:54:14.599Z,15.10
2023-12-14T13:57:16.825Z,15.38
2023-12-14T14:00:20.324Z,16.75
2023-12-14T14:03:24.565Z,13.90
2023-12-14T14:06:26.991Z,14.02
2023-12-14T14:09:29.613Z,16.73
2023-12-14T14:12:31.798Z,15.82
2023-12-14T14:15:34.283Z,14.63
2023-12-14T14:18:36.733Z,12.98
2023-12-14T14:21:39.870Z,17.23
2023-12-14T14:24:42.069Z,15.10
2023-12-14T14:27:47.868Z,15.35
2023-12-14T14:30:50.222Z,15.40
2023-12-14T14:33:52.745Z,14.55
2023-12-14T14:36:54.991Z,15.98
2023-12-14T14:39:57.494Z,16.35
2023-12-14T14:42:59.837Z,13.95
2023-12-14T14:46:02.566Z,14.63
2023-12-14T14:49:04.868Z,15.63
2023-12-14T14:52:07.984Z,15.25
2023-12-14T14:55:10.383Z,16.10
2023-12-14T14:58:12.928Z,14.18
2023-12-14T15:01:15.240Z,12.90
2023-12-14T15:04:18.471Z,14.60
2023-12-14T15:07:20.679Z,14.20
2023-12-14T15:10:23.138Z,13.27
2023-12-14T15:13:25.717Z,14.75
2023-12-14T15:16:28.257Z,19.23
2023-12-14T15:19:30.402Z,16.08
2023-12-14T15:22:36.812Z,17.02
2023-12-14T15:25:39.179Z,14.82
2023-12-14T15:28:41.908Z,18.73
2023-12-14T15:31:44.236Z,14.75
2023-12-14T15:34:46.814Z,17.45
2023-12-14T15:37:49.071Z,16.55
2023-12-14T15:40:51.589Z,18.40
2023-12-14T15:43:53.866Z,17.75
2023-12-14T15:46:56.390Z,17.52
2023-12-14T15:49:58.591Z,16.95
2023-12-14T15:53:01.105Z,19.12
2023-12-14T15:56:03.576Z,17.30
2023-12-14T15:59:08.221Z,17.10
2023-12-14T16:02:10.568Z,19.37
2023-12-14T16:05:13.186Z,18.92
2023-12-14T16:08:15.518Z,17.45
2023-12-14T16:11:17.981Z,18.65
2023-12-14T16:14:20.267Z,21.05
2023-12-14T16:17:22.736Z,18.77
2023-12-14T16:20:26.855Z,18.73
2023-12-14T16:23:29.396Z,18.27
2023-12-14T16:26:32.391Z,18.27
2023-12-14T16:29:37.956Z,18.02
2023-12-14T16:32:40.512Z,18.02
2023-12-14T16:35:43.562Z,19.58
